createdAt,value
2024-05-09T00:01:31.033Z,6.57
2024-05-09T00:04:01.042Z,6.03
2024-05-09T00:06:33.466Z,6.85
2024-05-09T00:09:03.652Z,7.22
2024-05-09T00:11:33.621Z,6.90
2024-05-09T00:14:03.598Z,6.40
2024-05-09T00:16:33.433Z,8.35
2024-05-09T00:19:03.390Z,6.88
2024-05-09T00:21:35.973Z,6.57
2024-05-09T00:24:06.262Z,6.65
2024-05-09T00:26:36.086Z,6.63
2024-05-09T00:29:06.149Z,7.07
2024-05-09T00:31:35.971Z,6.75
2024-05-09T00:34:06.285Z,7.85
2024-05-09T00:36:38.733Z,6.72
2024-05-09T00:39:08.594Z,6.43
2024-05-09T00:41:38.741Z,7.72
2024-05-09T00:44:09.410Z,7.18
2024-05-09T00:46:40.687Z,7.47
2024-05-09T00:49:11.532Z,6.97
2024-05-09T00:51:45.433Z,7.20
2024-05-09T00:54:15.415Z,6.05
2024-05-09T00:56:45.513Z,7.40
2024-05-09T00:59:15.744Z,6.65
2024-05-09T01:01:47.240Z,6.57
2024-05-09T01:04:17.269Z,6.85
2024-05-09T01:06:50.726Z,8.10
2024-05-09T01:09:20.608Z,6.95
2024-05-09T01:11:50.584Z,7.65
2024-05-09T01:14:20.811Z,8.88
2024-05-09T01:16:50.697Z,7.85
2024-05-09T01:19:31.266Z,6.55
2024-05-09T01:22:04.519Z,7.82
2024-05-09T01:24:37.007Z,7.97
2024-05-09T01:27:07.275Z,8.35
2024-05-09T01:29:37.197Z,7.30
2024-05-09T01:32:07.848Z,7.22
2024-05-09T01:34:37.825Z,7.43
2024-05-09T01:37:07.672Z,7.03
2024-05-09T01:39:40.223Z,8.25
2024-05-09T01:42:10.023Z,10.00
2024-05-09T01:44:39.859Z,7.60
2024-05-09T01:47:10.132Z,9.32
2024-05-09T01:49:40.591Z,8.00
2024-05-09T01:52:10.467Z,8.52
2024-05-09T01:54:42.881Z,7.60
2024-05-09T01:57:12.728Z,7.47
2024-05-09T01:59:42.541Z,8.88
2024-05-09T02:02:12.669Z,8.00
2024-05-09T02:04:42.947Z,7.65
2024-05-09T02:07:12.887Z,8.52
2024-05-09T02:09:45.290Z,8.85
2024-05-09T02:12:15.216Z,7.72
2024-05-09T02:14:45.079Z,7.10
2024-05-09T02:17:15.012Z,7.57
2024-05-09T02:19:45.127Z,9.35
2024-05-09T02:22:15.049Z,7.20
2024-05-09T02:24:47.465Z,7.88
2024-05-09T02:27:17.318Z,8.45
2024-05-09T02:29:48.402Z,8.35
2024-05-09T02:32:18.831Z,8.75
2024-05-09T02:34:48.813Z,8.80
2024-05-09T02:37:18.684Z,8.35
2024-05-09T02:39:48.573Z,8.85
2024-05-09T02:42:18.367Z,8.75
2024-05-09T02:44:45.590Z,8.43
2024-05-09T02:47:15.527Z,8.80
2024-05-09T02:49:43.273Z,7.78
2024-05-09T02:52:13.132Z,7.88
2024-05-09T02:54:40.364Z,7.90
2024-05-09T02:57:13.751Z,7.50
2024-05-09T02:59:41.010Z,7.45
2024-05-09T03:02:10.937Z,7.40
2024-05-09T03:04:39.237Z,8.63
2024-05-09T03:07:09.771Z,8.82
2024-05-09T03:09:36.958Z,7.90
2024-05-09T03:12:07.470Z,8.68
2024-05-09T03:14:37.387Z,9.50
2024-05-09T03:17:08.029Z,9.77
2024-05-09T03:19:35.698Z,9.52
2024-05-09T03:22:05.879Z,8.70
2024-05-09T03:24:33.118Z,8.32
2024-05-09T03:27:02.983Z,8.73
2024-05-09T03:29:30.338Z,9.88
2024-05-09T03:32:03.548Z,7.72
2024-05-09T03:34:30.990Z,9.07
2024-05-09T03:37:00.999Z,8.27
2024-05-09T03:39:30.836Z,8.07
2024-05-09T03:42:00.698Z,9.88
2024-05-09T03:44:30.592Z,8.82
2024-05-09T03:47:00.428Z,8.52
2024-05-09T03:49:30.334Z,9.63
2024-05-09T03:52:04.930Z,9.90
2024-05-09T03:54:34.867Z,8.23
2024-05-09T03:57:04.707Z,7.95
2024-05-09T03:59:32.099Z,9.10
2024-05-09T04:02:06.424Z,8.07
2024-05-09T04:04:34.205Z,8.15
2024-05-09T04:07:04.072Z,9.70
2024-05-09T04:09:31.607Z,7.95
2024-05-09T04:12:01.578Z,6.63
2024-05-09T04:14:29.000Z,9.77
2024-05-09T04:16:59.358Z,8.20
2024-05-09T04:19:29.437Z,8.20
2024-05-09T04:21:59.356Z,8.90
2024-05-09T04:24:26.552Z,8.18
2024-05-09T04:26:56.439Z,8.30
2024-05-09T04:29:23.692Z,8.25
2024-05-09T04:31:53.720Z,7.95
2024-05-09T04:34:21.123Z,9.10
2024-05-09T04:36:53.558Z,8.85
2024-05-09T04:39:20.776Z,8.13
2024-05-09T04:41:50.644Z,8.50
2024-05-09T04:44:17.969Z,14.15
2024-05-09T04:46:49.185Z,18.02
2024-05-09T04:49:16.590Z,15.98
2024-05-09T04:51:46.466Z,11.75
2024-05-09T04:54:26.408Z,10.30
2024-05-09T04:57:03.903Z,10.13
2024-05-09T04:59:31.333Z,8.18
2024-05-09T05:02:01.327Z,10.93
2024-05-09T05:04:29.710Z,16.08
2024-05-09T05:07:02.647Z,19.73
2024-05-09T05:09:32.859Z,18.83
2024-05-09T05:12:05.662Z,15.50
2024-05-09T05:14:33.117Z,12.48
2024-05-09T05:17:03.408Z,12.63
2024-05-09T05:19:30.966Z,12.23
2024-05-09T05:22:01.012Z,11.68
2024-05-09T05:24:28.375Z,9.13
2024-05-09T05:27:01.009Z,9.60
2024-05-09T05:29:28.274Z,9.30
2024-05-09T05:31:58.594Z,9.35
2024-05-09T05:34:25.894Z,9.32
2024-05-09T05:36:55.951Z,9.88
2024-05-09T05:39:23.184Z,9.55
2024-05-09T05:41:53.874Z,9.52
2024-05-09T05:44:23.766Z,7.88
2024-05-09T05:46:53.703Z,9.30
2024-05-09T05:49:21.314Z,9.25
2024-05-09T05:51:51.187Z,8.27
2024-05-09T05:54:18.459Z,8.43
2024-05-09T05:56:48.305Z,8.20
2024-05-09T05:59:15.914Z,7.38
2024-05-09T06:01:48.435Z,7.90
2024-05-09T06:04:15.766Z,8.48
2024-05-09T06:06:45.693Z,8.43
2024-05-09T06:09:12.947Z,9.48
2024-05-09T06:11:43.005Z,9.38
2024-05-09T06:14:10.315Z,9.27
2024-05-09T06:16:40.557Z,9.05
2024-05-09T06:19:10.592Z,8.93
2024-05-09T06:21:40.544Z,8.25
2024-05-09T06:24:07.856Z,9.63
2024-05-09T06:26:37.715Z,8.90
2024-05-09T06:29:05.014Z,10.25
2024-05-09T06:31:34.860Z,10.13
2024-05-09T06:34:02.246Z,10.07
2024-05-09T06:36:34.899Z,9.10
2024-05-09T06:39:02.136Z,11.02
2024-05-09T06:41:32.061Z,9.73
2024-05-09T06:43:59.414Z,10.55
2024-05-09T06:46:29.521Z,10.27
2024-05-09T06:48:57.243Z,9.88
2024-05-09T06:51:27.170Z,9.60
2024-05-09T06:53:57.442Z,10.48
2024-05-09T06:56:27.339Z,9.52
2024-05-09T06:58:54.697Z,9.90
2024-05-09T07:01:24.680Z,11.48
2024-05-09T07:03:52.047Z,10.18
2024-05-09T07:06:21.992Z,9.05
2024-05-09T07:08:51.871Z,9.88
2024-05-09T07:11:25.173Z,9.38
2024-05-09T07:13:53.213Z,7.72
2024-05-09T07:16:23.088Z,8.18
2024-05-09T07:18:54.941Z,6.30
2024-05-09T07:21:25.250Z,6.25
2024-05-09T07:23:52.573Z,5.03
2024-05-09T07:26:25.036Z,5.00
2024-05-09T07:28:52.513Z,5.18
2024-05-09T07:31:23.395Z,5.05
2024-05-09T07:33:50.918Z,4.65
2024-05-09T07:36:20.858Z,4.22
2024-05-09T07:38:48.179Z,3.97
2024-05-09T07:41:18.168Z,3.78
2024-05-09T07:43:48.868Z,3.50
2024-05-09T07:47:14.465Z,3.80
2024-05-09T07:54:12.556Z,3.78
2024-05-09T07:56:42.701Z,3.88
2024-05-09T07:59:12.697Z,2.83
2024-05-09T08:01:42.593Z,2.88
2024-05-09T08:04:12.548Z,2.95
2024-05-09T08:06:42.808Z,2.28
2024-05-09T08:09:13.917Z,2.78
2024-05-09T08:11:49.556Z,2.30
2024-05-09T08:14:19.513Z,2.40
2024-05-09T08:16:49.406Z,2.40
2024-05-09T08:19:16.732Z,2.40
2024-05-09T08:21:46.734Z,2.50
2024-05-09T08:24:14.056Z,2.17
2024-05-09T08:26:43.868Z,2.30
2024-05-09T08:29:11.176Z,1.95
2024-05-09T08:31:44.405Z,1.48
2024-05-09T08:34:12.610Z,1.20
2024-05-09T08:36:42.548Z,1.85
2024-05-09T08:39:09.855Z,1.50
2024-05-09T08:41:44.616Z,1.85
2024-05-09T08:44:12.508Z,2.03
2024-05-09T08:46:48.922Z,1.77
2024-05-09T08:49:16.814Z,1.90
2024-05-09T08:51:47.612Z,1.50
2024-05-09T08:54:14.887Z,1.92
2024-05-09T08:56:50.775Z,2.00
2024-05-09T08:59:28.129Z,2.03
2024-05-09T09:02:01.668Z,2.22
2024-05-09T09:04:31.103Z,1.77
2024-05-09T09:07:03.546Z,1.88
2024-05-09T09:09:32.598Z,1.75
2024-05-09T09:12:02.859Z,2.10
2024-05-09T09:14:30.187Z,1.83
2024-05-09T09:17:02.619Z,1.73
2024-05-09T09:19:29.853Z,1.88
2024-05-09T09:22:00.031Z,1.60
2024-05-09T09:24:27.332Z,1.60
2024-05-09T09:26:59.538Z,1.55
2024-05-09T09:29:27.119Z,1.30
2024-05-09T09:32:03.939Z,2.15
2024-05-09T09:34:32.016Z,1.60
2024-05-09T09:37:06.765Z,1.80
2024-05-09T09:39:35.634Z,1.58
2024-05-09T09:42:06.966Z,2.00
2024-05-09T09:44:37.308Z,2.40
2024-05-09T09:47:12.849Z,1.75
2024-05-09T09:49:40.821Z,1.60
2024-05-09T09:52:11.341Z,1.55
2024-05-09T09:54:39.712Z,2.10
2024-05-09T09:57:11.668Z,1.58
2024-05-09T09:59:41.164Z,1.88
2024-05-09T10:02:13.991Z,1.52
2024-05-09T10:04:41.552Z,1.35
2024-05-09T10:07:14.139Z,1.70
2024-05-09T10:09:41.692Z,1.60
2024-05-09T10:12:13.682Z,1.75
2024-05-09T10:14:46.165Z,1.38
2024-05-09T10:17:18.796Z,1.75
2024-05-09T10:19:46.984Z,1.52
2024-05-09T10:22:17.494Z,1.42
2024-05-09T10:24:48.789Z,1.63
2024-05-09T10:27:21.069Z,1.90
2024-05-09T10:29:55.618Z,1.20
2024-05-09T10:32:30.394Z,1.20
2024-05-09T10:35:01.270Z,1.38
2024-05-09T10:37:31.557Z,1.40
2024-05-09T10:39:59.373Z,1.67
2024-05-09T10:42:29.654Z,1.90
2024-05-09T10:44:58.141Z,1.50
2024-05-09T10:47:32.255Z,1.10
2024-05-09T10:49:59.866Z,1.83
2024-05-09T10:52:29.746Z,1.45
2024-05-09T10:54:57.068Z,1.20
2024-05-09T10:57:27.320Z,1.90
2024-05-09T10:59:55.213Z,1.67
2024-05-09T11:02:25.413Z,1.80
2024-05-09T11:04:55.794Z,1.83
2024-05-09T11:07:25.852Z,1.58
2024-05-09T11:09:54.301Z,1.63
2024-05-09T11:12:24.982Z,1.65
2024-05-09T11:14:53.488Z,1.40
2024-05-09T11:17:23.540Z,1.80
2024-05-09T11:19:50.952Z,1.48
2024-05-09T11:22:25.125Z,1.45
2024-05-09T11:24:54.776Z,1.40
2024-05-09T11:27:26.108Z,1.25
2024-05-09T11:29:53.414Z,1.40
2024-05-09T11:32:32.700Z,1.60
2024-05-09T11:35:00.152Z,1.38
2024-05-09T11:37:35.425Z,1.20
2024-05-09T11:40:07.068Z,1.25
2024-05-09T11:42:41.514Z,1.50
2024-05-09T11:45:08.934Z,1.30
2024-05-09T11:47:38.887Z,1.60
2024-05-09T11:50:08.330Z,1.23
2024-05-09T11:52:45.385Z,1.30
2024-05-09T11:55:13.042Z,1.65
2024-05-09T11:57:42.955Z,1.83
2024-05-09T12:00:15.011Z,1.50
2024-05-09T12:02:47.886Z,1.42
2024-05-09T12:05:15.382Z,1.55
2024-05-09T12:07:48.020Z,1.63
2024-05-09T12:10:19.817Z,1.30
2024-05-09T12:12:52.839Z,1.85
2024-05-09T12:15:20.134Z,1.35
2024-05-09T12:17:50.859Z,1.65
2024-05-09T12:20:28.082Z,1.40
2024-05-09T12:23:05.740Z,1.20
2024-05-09T12:25:33.085Z,1.23
2024-05-09T12:28:03.169Z,1.10
2024-05-09T12:30:36.665Z,1.30
2024-05-09T12:33:11.543Z,1.30
2024-05-09T12:35:39.871Z,1.50
2024-05-09T12:38:12.469Z,1.10
2024-05-09T12:40:40.219Z,1.15
2024-05-09T12:43:11.421Z,1.42
2024-05-09T12:45:39.802Z,1.65
2024-05-09T12:48:12.270Z,1.50
2024-05-09T12:50:41.427Z,1.00
2024-05-09T12:53:14.423Z,1.33
2024-05-09T12:55:48.760Z,1.30
2024-05-09T12:58:26.424Z,1.15
2024-05-09T13:00:53.892Z,1.40
2024-05-09T13:03:24.251Z,1.40
2024-05-09T13:05:52.025Z,2.10
2024-05-09T13:08:24.778Z,1.63
2024-05-09T13:10:52.408Z,1.60
2024-05-09T13:13:22.324Z,1.55
2024-05-09T13:15:49.825Z,1.50
2024-05-09T13:18:19.958Z,1.50
2024-05-09T13:20:47.206Z,1.50
2024-05-09T13:23:17.054Z,1.42
2024-05-09T13:25:46.922Z,1.40
2024-05-09T13:28:17.213Z,1.40
2024-05-09T13:30:44.588Z,1.25
2024-05-09T13:33:15.294Z,1.20
2024-05-09T13:35:47.400Z,1.30
2024-05-09T13:38:21.854Z,1.40
2024-05-09T13:40:51.817Z,1.52
2024-05-09T13:43:23.187Z,1.23
2024-05-09T13:45:50.795Z,1.33
2024-05-09T13:48:21.226Z,1.42
2024-05-09T13:50:48.560Z,1.20
2024-05-09T13:53:18.475Z,1.40
2024-05-09T13:55:45.902Z,1.38
2024-05-09T13:58:18.594Z,1.35
2024-05-09T14:00:48.833Z,1.67
2024-05-09T14:03:21.035Z,1.80
2024-05-09T14:05:50.879Z,1.20
2024-05-09T14:08:22.341Z,1.85
2024-05-09T14:10:50.669Z,1.25
2024-05-09T14:13:23.317Z,1.50
2024-05-09T14:15:50.798Z,1.30
2024-05-09T14:18:21.155Z,1.10
2024-05-09T14:20:48.973Z,1.10
2024-05-09T14:23:20.743Z,1.60
2024-05-09T14:25:52.057Z,1.27
2024-05-09T14:28:26.818Z,1.38
2024-05-09T14:30:56.509Z,1.40
2024-05-09T14:33:27.108Z,1.50
2024-05-09T14:35:54.561Z,1.15
2024-05-09T14:38:24.689Z,1.60
2024-05-09T14:40:52.159Z,1.65
2024-05-09T14:43:25.153Z,1.40
2024-05-09T14:45:53.357Z,2.13
2024-05-09T14:48:23.517Z,1.67
2024-05-09T14:50:50.841Z,1.50
2024-05-09T14:53:20.701Z,1.90
2024-05-09T14:55:49.671Z,2.53
2024-05-09T14:58:20.073Z,2.28
2024-05-09T15:00:51.484Z,1.65
2024-05-09T15:03:22.877Z,1.48
2024-05-09T15:05:51.158Z,1.80
2024-05-09T15:08:22.316Z,1.60
2024-05-09T15:10:50.817Z,1.50
2024-05-09T15:13:21.378Z,1.55
2024-05-09T15:15:52.107Z,1.35
2024-05-09T15:18:22.254Z,1.55
2024-05-09T15:20:49.803Z,1.60
2024-05-09T15:23:19.879Z,1.63
2024-05-09T15:25:47.794Z,1.70
2024-05-09T15:28:18.104Z,2.03
2024-05-09T15:30:46.972Z,1.60
2024-05-09T15:33:19.782Z,1.50
2024-05-09T15:35:47.411Z,1.50
2024-05-09T15:38:18.465Z,1.45
2024-05-09T15:40:46.216Z,1.20
2024-05-09T15:43:16.535Z,1.08
2024-05-09T15:45:44.033Z,1.45
2024-05-09T15:48:14.388Z,1.58
2024-05-09T15:50:45.020Z,1.55
2024-05-09T15:53:15.272Z,1.83
2024-05-09T15:55:43.162Z,1.30
2024-05-09T15:58:13.793Z,1.70
2024-05-09T16:00:44.149Z,1.63
2024-05-09T16:03:15.868Z,1.85
2024-05-09T16:05:47.129Z,1.70
2024-05-09T16:08:18.166Z,1.70
2024-05-09T16:10:47.166Z,1.92
2024-05-09T16:13:19.686Z,1.40
2024-05-09T16:15:47.569Z,1.10
2024-05-09T16:18:17.863Z,1.63
2024-05-09T16:20:50.048Z,1.50
2024-05-09T16:23:20.438Z,1.65
2024-05-09T16:25:48.312Z,1.80
2024-05-09T16:28:19.321Z,1.80
2024-05-09T16:30:47.377Z,1.88
2024-05-09T16:33:19.351Z,2.33
2024-05-09T16:35:49.998Z,1.60
2024-05-09T16:38:20.018Z,1.60
2024-05-09T16:40:47.735Z,1.95
2024-05-09T16:43:17.961Z,1.83
2024-05-09T16:45:45.388Z,1.95
2024-05-09T16:48:16.037Z,2.13
2024-05-09T16:50:43.444Z,1.90
2024-05-09T16:53:16.267Z,1.88
2024-05-09T16:55:43.531Z,1.80
2024-05-09T16:58:14.312Z,2.20
2024-05-09T17:00:43.619Z,2.35
2024-05-09T17:03:16.464Z,1.98
2024-05-09T17:05:45.965Z,2.15
2024-05-09T17:08:20.632Z,1.80
2024-05-09T17:10:49.352Z,1.98
2024-05-09T17:13:20.398Z,1.95
2024-05-09T17:15:51.238Z,2.20
2024-05-09T17:18:22.265Z,1.85
2024-05-09T17:20:52.561Z,2.17
2024-05-09T17:23:22.628Z,2.30
2024-05-09T17:25:52.844Z,2.17
2024-05-09T17:28:20.542Z,2.25
2024-05-09T17:30:51.106Z,2.63
2024-05-09T17:33:18.521Z,2.50
2024-05-09T17:35:50.816Z,2.38
2024-05-09T17:38:23.316Z,2.08
2024-05-09T17:40:53.652Z,2.33
2024-05-09T17:43:21.680Z,2.13
2024-05-09T17:45:51.993Z,2.25
2024-05-09T17:48:19.635Z,2.28
2024-05-09T17:50:51.424Z,2.65
2024-05-09T17:53:21.529Z,2.58
2024-05-09T17:55:54.109Z,2.70
2024-05-09T17:58:21.591Z,2.65
2024-05-09T18:00:51.982Z,2.40
2024-05-09T18:03:19.922Z,2.45
2024-05-09T18:05:49.832Z,2.42
2024-05-09T18:08:17.177Z,2.47
2024-05-09T18:13:17.022Z,3.15
2024-05-09T18:15:46.938Z,2.60
2024-05-09T18:18:14.367Z,2.58
2024-05-09T18:20:46.029Z,2.95
2024-05-09T18:23:16.586Z,2.58
2024-05-09T18:25:54.435Z,2.47
2024-05-09T18:28:21.963Z,2.60
2024-05-09T18:30:51.862Z,2.50
2024-05-09T18:33:19.382Z,2.50
2024-05-09T18:35:49.358Z,3.28
2024-05-09T18:38:17.645Z,3.13
2024-05-09T18:40:50.319Z,3.20
2024-05-09T18:43:17.824Z,3.60
2024-05-09T18:45:48.971Z,3.17
2024-05-09T18:48:16.377Z,2.72
2024-05-09T18:50:46.499Z,2.95
2024-05-09T18:53:14.463Z,2.65
2024-05-09T18:55:44.764Z,3.13
2024-05-09T18:58:17.116Z,3.08
2024-05-09T19:00:50.204Z,2.90
2024-05-09T19:03:18.857Z,2.83
2024-05-09T19:05:49.426Z,3.25
2024-05-09T19:08:16.726Z,3.08
2024-05-09T19:10:47.901Z,3.08
2024-05-09T19:13:17.935Z,3.25
2024-05-09T19:15:47.974Z,2.97
2024-05-09T19:18:15.854Z,3.20
2024-05-09T19:20:46.277Z,2.90
2024-05-09T19:23:13.608Z,3.25
2024-05-09T19:25:43.586Z,3.08
2024-05-09T19:28:13.485Z,3.13
2024-05-09T19:30:43.516Z,3.00
2024-05-09T19:33:14.718Z,3.17
2024-05-09T19:35:42.819Z,3.15
2024-05-09T19:38:13.027Z,3.60
2024-05-09T19:40:40.508Z,3.30
2024-05-09T19:43:11.068Z,3.33
2024-05-09T19:45:38.759Z,2.70
2024-05-09T19:48:11.755Z,3.63
2024-05-09T19:50:43.256Z,3.10
2024-05-09T19:53:15.187Z,3.25
2024-05-09T19:55:43.214Z,3.25
2024-05-09T19:58:13.815Z,3.25
2024-05-09T20:00:43.228Z,3.38
2024-05-09T20:03:17.311Z,3.25
2024-05-09T20:05:46.588Z,2.65
2024-05-09T20:08:17.280Z,3.75
2024-05-09T20:10:44.807Z,3.25
2024-05-09T20:13:16.273Z,3.38
2024-05-09T20:15:43.695Z,3.40
2024-05-09T20:18:16.495Z,3.60
2024-05-09T20:20:45.443Z,3.63
2024-05-09T20:23:16.256Z,3.70
2024-05-09T20:25:43.527Z,3.58
2024-05-09T20:28:13.578Z,3.92
2024-05-09T20:30:41.126Z,3.90
2024-05-09T20:33:12.445Z,3.95
2024-05-09T20:35:42.499Z,3.70
2024-05-09T20:38:12.691Z,3.53
2024-05-09T20:40:40.245Z,3.60
2024-05-09T20:43:11.150Z,3.95
2024-05-09T20:45:38.926Z,3.72
2024-05-09T20:48:10.852Z,3.55
2024-05-09T20:50:41.283Z,3.50
2024-05-09T20:53:15.721Z,4.10
2024-05-09T20:55:43.978Z,4.85
2024-05-09T20:58:14.520Z,3.55
2024-05-09T21:00:44.685Z,3.97
2024-05-09T21:03:17.344Z,4.68
2024-05-09T21:05:45.882Z,3.95
2024-05-09T21:08:19.732Z,3.40
2024-05-09T21:10:47.629Z,4.35
2024-05-09T21:13:17.707Z,3.50
2024-05-09T21:15:45.556Z,3.53
2024-05-09T21:18:15.522Z,3.65
2024-05-09T21:20:43.220Z,3.50
2024-05-09T21:23:13.099Z,3.88
2024-05-09T21:25:43.362Z,3.25
2024-05-09T21:28:14.749Z,3.17
2024-05-09T21:30:43.268Z,3.38
2024-05-09T21:33:15.072Z,2.97
2024-05-09T21:35:42.994Z,2.47
2024-05-09T21:38:13.516Z,3.28
2024-05-09T21:40:44.117Z,3.67
2024-05-09T21:43:14.761Z,2.97
2024-05-09T21:45:42.392Z,3.40
2024-05-09T21:48:15.906Z,3.38
2024-05-09T21:50:43.257Z,3.55
2024-05-09T21:53:13.841Z,3.33
2024-05-09T21:55:44.393Z,3.55
2024-05-09T21:58:16.031Z,3.50
2024-05-09T22:00:45.622Z,3.30
2024-05-09T22:03:16.638Z,3.15
2024-05-09T22:05:45.059Z,3.80
2024-05-09T22:08:15.705Z,3.55
2024-05-09T22:10:45.774Z,3.65
2024-05-09T22:13:16.840Z,3.35
2024-05-09T22:15:44.405Z,3.40
2024-05-09T22:18:14.512Z,3.67
2024-05-09T22:20:45.220Z,2.90
2024-05-09T22:23:17.094Z,3.10
2024-05-09T22:25:47.048Z,3.08
2024-05-09T22:28:17.837Z,3.70
2024-05-09T22:30:46.969Z,3.20
2024-05-09T22:33:18.180Z,3.10
2024-05-09T22:35:45.605Z,2.58
2024-05-09T22:38:15.677Z,3.20
2024-05-09T22:40:48.152Z,3.05
2024-05-09T22:43:24.993Z,3.40
2024-05-09T22:45:54.330Z,3.20
2024-05-09T22:48:25.419Z,3.40
2024-05-09T22:50:53.670Z,3.10
2024-05-09T22:53:24.743Z,3.47
2024-05-09T22:55:52.208Z,3.35
2024-05-09T22:58:26.250Z,3.47
2024-05-09T23:00:53.667Z,3.17
2024-05-09T23:03:23.644Z,3.50
2024-05-09T23:05:51.225Z,2.72
2024-05-09T23:08:21.064Z,4.20
2024-05-09T23:10:48.718Z,3.45
2024-05-09T23:13:18.835Z,3.50
2024-05-09T23:15:49.341Z,3.20
2024-05-09T23:18:19.339Z,4.00
2024-05-09T23:20:46.648Z,4.40
2024-05-09T23:23:16.571Z,3.80
2024-05-09T23:25:44.199Z,3.92
2024-05-09T23:28:14.491Z,3.80
2024-05-09T23:30:42.593Z,3.90
2024-05-09T23:33:15.551Z,3.53
2024-05-09T23:35:44.036Z,3.53
2024-05-09T23:38:14.444Z,2.85
2024-05-09T23:40:42.850Z,3.83
2024-05-09T23:43:13.726Z,3.60
2024-05-09T23:45:41.923Z,3.58
2024-05-09T23:48:15.544Z,4.28
2024-05-09T23:50:42.919Z,3.33
2024-05-09T23:53:14.197Z,3.85
2024-05-09T23:55:41.736Z,3.40
2024-05-09T23:58:11.843Z,3.75
